sensor_id;sensor_type;location;lat;lon;timestamp;pressure;altitude;pressure_sealevel;temperature;humidity
12358;BME280;6243;51.244;6.774;2023-04-02T00:01:04;152098.25;;;18.36;60.41
12358;BME280;6243;51.244;6.774;2023-04-02T00:04:02;152049.63;;;18.17;60.74
12358;BME280;6243;51.244;6.774;2023-04-02T00:06:34;152043.25;;;18.14;61.02
12358;BME280;6243;51.244;6.774;2023-04-02T00:09:01;152145.63;;;18.55;59.90
12358;BME280;6243;51.244;6.774;2023-04-02T00:11:29;151975.47;;;17.88;61.32
12358;BME280;6243;51.244;6.774;2023-04-02T00:13:59;151866.81;;;17.45;61.85
12358;BME280;6243;51.244;6.774;2023-04-02T00:16:27;151894.97;;;17.56;62.14
12358;BME280;6243;51.244;6.774;2023-04-02T00:18:56;151919.25;;;17.65;61.96
12358;BME280;6243;51.244;6.774;2023-04-02T00:21:26;151981.88;;;17.90;61.12
12358;BME280;6243;51.244;6.774;2023-04-02T00:23:53;151888.56;;;17.53;61.83
12358;BME280;6243;51.244;6.774;2023-04-02T00:26:26;152001.06;;;17.98;61.20
12358;BME280;6243;51.244;6.774;2023-04-02T00:28:53;151944.78;;;17.76;61.66
12358;BME280;6243;51.244;6.774;2023-04-02T00:31:19;152054.75;;;18.19;60.71
12358;BME280;6243;51.244;6.774;2023-04-02T00:33:47;152079.06;;;18.28;60.40
12358;BME280;6243;51.244;6.774;2023-04-02T00:36:13;151984.41;;;17.91;61.14
12358;BME280;6243;51.244;6.774;2023-04-02T00:38:38;152123.84;;;18.46;59.98
12358;BME280;6243;51.244;6.774;2023-04-02T00:41:06;151893.66;;;17.55;61.70
12358;BME280;6243;51.244;6.774;2023-04-02T00:43:34;151993.38;;;17.95;60.81
12358;BME280;6243;51.244;6.774;2023-04-02T00:46:02;151932.03;;;17.70;61.01
12358;BME280;6243;51.244;6.774;2023-04-02T00:48:40;151979.31;;;17.89;60.57
12358;BME280;6243;51.244;6.774;2023-04-02T00:51:14;151914.16;;;17.63;60.77
12358;BME280;6243;51.244;6.774;2023-04-02T00:53:43;151962.69;;;17.83;60.14
12358;BME280;6243;51.244;6.774;2023-04-02T00:56:14;151829.72;;;17.30;61.44
12358;BME280;6243;51.244;6.774;2023-04-02T00:58:42;151735.16;;;16.93;61.74
12358;BME280;6243;51.244;6.774;2023-04-02T01:01:15;151827.19;;;17.29;61.36
12358;BME280;6243;51.244;6.774;2023-04-02T01:03:41;151740.31;;;16.95;61.71
12358;BME280;6243;51.244;6.774;2023-04-02T01:06:08;151747.94;;;16.98;61.88
12358;BME280;6243;51.244;6.774;2023-04-02T01:08:50;151862.94;;;17.43;61.17
12358;BME280;6243;51.244;6.774;2023-04-02T01:11:42;151946.06;;;17.76;60.40
12358;BME280;6243;51.244;6.774;2023-04-02T01:14:16;151855.31;;;17.40;60.99
12358;BME280;6243;51.244;6.774;2023-04-02T01:16:49;151851.44;;;17.39;60.70
12358;BME280;6243;51.244;6.774;2023-04-02T01:19:36;151873.19;;;17.47;60.18
12358;BME280;6243;51.244;6.774;2023-04-02T01:22:06;151778.63;;;17.10;60.96
12358;BME280;6243;51.244;6.774;2023-04-02T01:24:35;151645.78;;;16.58;62.15
12358;BME280;6243;51.244;6.774;2023-04-02T01:27:03;151868.09;;;17.45;60.54
12358;BME280;6243;51.244;6.774;2023-04-02T01:29:32;151603.56;;;16.41;62.43
12358;BME280;6243;51.244;6.774;2023-04-02T01:32:01;151653.44;;;16.61;62.68
12358;BME280;6243;51.244;6.774;2023-04-02T01:34:28;151754.34;;;17.00;61.82
12358;BME280;6243;51.244;6.774;2023-04-02T01:37:09;151824.63;;;17.28;61.25
12358;BME280;6243;51.244;6.774;2023-04-02T01:39:47;151548.69;;;16.19;62.88
12358;BME280;6243;51.244;6.774;2023-04-02T01:42:20;151502.72;;;16.01;63.40
12358;BME280;6243;51.244;6.774;2023-04-02T01:44:51;151590.78;;;16.36;62.79
12358;BME280;6243;51.244;6.774;2023-04-02T01:47:20;151640.66;;;16.56;62.16
12358;BME280;6243;51.244;6.774;2023-04-02T01:49:46;151684.06;;;16.73;61.77
12358;BME280;6243;51.244;6.774;2023-04-02T01:52:15;151663.66;;;16.65;61.97
12358;BME280;6243;51.244;6.774;2023-04-02T01:54:41;151526.94;;;16.11;63.12
12358;BME280;6243;51.244;6.774;2023-04-02T01:57:07;151819.50;;;17.26;60.86
12358;BME280;6243;51.244;6.774;2023-04-02T01:59:33;151810.53;;;17.23;60.55
12358;BME280;6243;51.244;6.774;2023-04-02T02:02:02;151736.44;;;16.93;60.86
12358;BME280;6243;51.244;6.774;2023-04-02T02:04:29;151641.97;;;16.56;61.55
12358;BME280;6243;51.244;6.774;2023-04-02T02:07:19;151690.47;;;16.75;61.23
12358;BME280;6243;51.244;6.774;2023-04-02T02:09:46;151668.75;;;16.67;61.33
12358;BME280;6243;51.244;6.774;2023-04-02T02:12:14;151512.94;;;16.05;62.06
12358;BME280;6243;51.244;6.774;2023-04-02T02:14:45;151585.69;;;16.34;61.47
12358;BME280;6243;51.244;6.774;2023-04-02T02:17:14;151505.25;;;16.02;61.95
12358;BME280;6243;51.244;6.774;2023-04-02T02:19:42;151357.22;;;15.44;63.20
12358;BME280;6243;51.244;6.774;2023-04-02T02:22:24;151466.97;;;15.87;62.46
12358;BME280;6243;51.244;6.774;2023-04-02T02:24:51;151523.13;;;16.09;61.63
12358;BME280;6243;51.244;6.774;2023-04-02T02:27:43;151597.16;;;16.39;60.32
12358;BME280;6243;51.244;6.774;2023-04-02T02:30:14;151359.75;;;15.45;62.57
12358;BME280;6243;51.244;6.774;2023-04-02T02:32:47;151581.88;;;16.32;60.78
12358;BME280;6243;51.244;6.774;2023-04-02T02:35:17;151561.47;;;16.24;60.88
12358;BME280;6243;51.244;6.774;2023-04-02T02:37:46;151541.00;;;16.16;61.13
12358;BME280;6243;51.244;6.774;2023-04-02T02:40:18;151716.03;;;16.85;59.56
12358;BME280;6243;51.244;6.774;2023-04-02T02:42:48;151585.69;;;16.34;60.89
12358;BME280;6243;51.244;6.774;2023-04-02T02:45:21;151534.63;;;16.14;60.40
12358;BME280;6243;51.244;6.774;2023-04-02T02:47:51;151730.06;;;16.91;59.25
12358;BME280;6243;51.244;6.774;2023-04-02T02:50:20;151691.75;;;16.76;59.41
12358;BME280;6243;51.244;6.774;2023-04-02T02:52:52;151754.34;;;17.00;58.98
12358;BME280;6243;51.244;6.774;2023-04-02T02:55:20;151648.34;;;16.59;59.95
12358;BME280;6243;51.244;6.774;2023-04-02T02:57:49;151728.81;;;16.90;59.12
12358;BME280;6243;51.244;6.774;2023-04-02T03:00:17;151624.03;;;16.49;59.64
12358;BME280;6243;51.244;6.774;2023-04-02T03:02:44;151578.06;;;16.31;59.90
12358;BME280;6243;51.244;6.774;2023-04-02T03:05:16;151574.19;;;16.29;60.05
12358;BME280;6243;51.244;6.774;2023-04-02T03:07:43;151595.94;;;16.38;59.85
12358;BME280;6243;51.244;6.774;2023-04-02T03:10:14;151594.66;;;16.38;59.68
12358;BME280;6243;51.244;6.774;2023-04-02T03:12:44;151659.84;;;16.63;59.48
12358;BME280;6243;51.244;6.774;2023-04-02T03:15:19;151556.31;;;16.22;60.05
12358;BME280;6243;51.244;6.774;2023-04-02T03:17:50;151376.38;;;15.51;61.01
12358;BME280;6243;51.244;6.774;2023-04-02T03:20:20;151456.78;;;15.83;60.89
12358;BME280;6243;51.244;6.774;2023-04-02T03:22:54;151486.13;;;15.95;60.56
12358;BME280;6243;51.244;6.774;2023-04-02T03:25:28;151367.41;;;15.48;60.95
12358;BME280;6243;51.244;6.774;2023-04-02T03:27:59;151432.50;;;15.74;60.99
12358;BME280;6243;51.244;6.774;2023-04-02T03:30:29;151389.09;;;15.56;61.29
12358;BME280;6243;51.244;6.774;2023-04-02T03:33:00;151346.97;;;15.40;61.88
12358;BME280;6243;51.244;6.774;2023-04-02T03:35:33;151382.72;;;15.54;61.23
12358;BME280;6243;51.244;6.774;2023-04-02T03:38:03;151408.25;;;15.64;61.04
12358;BME280;6243;51.244;6.774;2023-04-02T03:40:33;151447.81;;;15.80;60.58
12358;BME280;6243;51.244;6.774;2023-04-02T03:43:02;151264.03;;;15.07;61.77
12358;BME280;6243;51.244;6.774;2023-04-02T03:45:33;151341.81;;;15.38;60.99
12358;BME280;6243;51.244;6.774;2023-04-02T03:48:02;151352.06;;;15.42;61.01
12358;BME280;6243;51.244;6.774;2023-04-02T03:50:34;151281.91;;;15.14;62.08
12358;BME280;6243;51.244;6.774;2023-04-02T03:53:03;151382.72;;;15.54;61.15
12358;BME280;6243;51.244;6.774;2023-04-02T03:55:31;151234.69;;;14.96;61.98
12358;BME280;6243;51.244;6.774;2023-04-02T03:58:00;151255.06;;;15.04;61.80
12358;BME280;6243;51.244;6.774;2023-04-02T04:00:33;151392.97;;;15.58;61.12
12358;BME280;6243;51.244;6.774;2023-04-02T04:03:04;151392.97;;;15.58;60.32
12358;BME280;6243;51.244;6.774;2023-04-02T04:05:34;151381.47;;;15.53;61.10
12358;BME280;6243;51.244;6.774;2023-04-02T04:08:04;151370.00;;;15.49;61.04
12358;BME280;6243;51.244;6.774;2023-04-02T04:10:31;151409.53;;;15.65;60.47
12358;BME280;6243;51.244;6.774;2023-04-02T04:13:01;151332.91;;;15.34;61.27
12358;BME280;6243;51.244;6.774;2023-04-02T04:15:33;151373.81;;;15.50;60.77
12358;BME280;6243;51.244;6.774;2023-04-02T04:18:05;151452.91;;;15.82;60.35
12358;BME280;6243;51.244;6.774;2023-04-02T04:20:39;151468.25;;;15.88;59.89
12358;BME280;6243;51.244;6.774;2023-04-02T04:23:10;151479.75;;;15.92;59.55
12358;BME280;6243;51.244;6.774;2023-04-02T04:25:41;151382.72;;;15.54;60.43
12358;BME280;6243;51.244;6.774;2023-04-02T04:28:14;151472.06;;;15.89;59.64
12358;BME280;6243;51.244;6.774;2023-04-02T04:30:49;151525.69;;;16.10;58.79
12358;BME280;6243;51.244;6.774;2023-04-02T04:33:19;151265.31;;;15.08;61.05
12358;BME280;6243;51.244;6.774;2023-04-02T04:35:49;151220.63;;;14.90;61.26
12358;BME280;6243;51.244;6.774;2023-04-02T04:38:18;151094.41;;;14.40;62.10
12358;BME280;6243;51.244;6.774;2023-04-02T04:40:47;151224.50;;;14.91;61.06
12358;BME280;6243;51.244;6.774;2023-04-02T04:43:18;151168.34;;;14.69;61.58
12358;BME280;6243;51.244;6.774;2023-04-02T04:45:48;151187.50;;;14.77;61.15
12358;BME280;6243;51.244;6.774;2023-04-02T04:48:18;151237.25;;;14.97;60.37
12358;BME280;6243;51.244;6.774;2023-04-02T04:50:49;151116.09;;;14.49;61.63
12358;BME280;6243;51.244;6.774;2023-04-02T04:53:20;151216.81;;;14.88;60.66
12358;BME280;6243;51.244;6.774;2023-04-02T04:55:47;151100.78;;;14.43;61.07
12358;BME280;6243;51.244;6.774;2023-04-02T04:58:17;151125.00;;;14.52;61.62
12358;BME280;6243;51.244;6.774;2023-04-02T05:00:52;151062.50;;;14.28;61.31
12358;BME280;6243;51.244;6.774;2023-04-02T05:03:25;150970.72;;;13.91;62.36
12358;BME280;6243;51.244;6.774;2023-04-02T05:06:00;151056.13;;;14.25;62.02
12358;BME280;6243;51.244;6.774;2023-04-02T05:08:31;150959.25;;;13.87;62.51
12358;BME280;6243;51.244;6.774;2023-04-02T05:11:00;150996.19;;;14.01;62.55
12358;BME280;6243;51.244;6.774;2023-04-02T05:13:31;150836.94;;;13.38;63.50
12358;BME280;6243;51.244;6.774;2023-04-02T05:16:04;150994.97;;;14.01;62.64
12358;BME280;6243;51.244;6.774;2023-04-02T05:18:38;150964.34;;;13.89;62.35
12358;BME280;6243;51.244;6.774;2023-04-02T05:21:14;150880.22;;;13.56;62.74
12358;BME280;6243;51.244;6.774;2023-04-02T05:23:44;150993.66;;;14.00;62.39
12358;BME280;6243;51.244;6.774;2023-04-02T05:26:14;151099.50;;;14.42;60.64
12358;BME280;6243;51.244;6.774;2023-04-02T05:28:44;151020.41;;;14.11;61.37
12358;BME280;6243;51.244;6.774;2023-04-02T05:31:14;151038.25;;;14.18;61.62
12358;BME280;6243;51.244;6.774;2023-04-02T05:33:44;151053.53;;;14.24;61.88
12358;BME280;6243;51.244;6.774;2023-04-02T05:36:18;151049.75;;;14.22;61.76
12358;BME280;6243;51.244;6.774;2023-04-02T05:38:45;151095.69;;;14.41;61.28
12358;BME280;6243;51.244;6.774;2023-04-02T05:41:20;151084.22;;;14.36;61.37
12358;BME280;6243;51.244;6.774;2023-04-02T05:43:48;151125.00;;;14.52;61.20
12358;BME280;6243;51.244;6.774;2023-04-02T05:46:17;151122.44;;;14.51;60.88
12358;BME280;6243;51.244;6.774;2023-04-02T05:48:47;151154.34;;;14.64;61.17
12358;BME280;6243;51.244;6.774;2023-04-02T05:51:20;151221.91;;;14.90;60.65
12358;BME280;6243;51.244;6.774;2023-04-02T05:53:50;151211.72;;;14.86;60.71
12358;BME280;6243;51.244;6.774;2023-04-02T05:56:19;151190.06;;;14.78;60.80
12358;BME280;6243;51.244;6.774;2023-04-02T05:58:49;151071.44;;;14.31;61.02
12358;BME280;6243;51.244;6.774;2023-04-02T06:01:30;150991.09;;;13.99;61.80
12358;BME280;6243;51.244;6.774;2023-04-02T06:04:01;150935.03;;;13.77;62.20
12358;BME280;6243;51.244;6.774;2023-04-02T06:06:47;150929.94;;;13.75;62.25
12358;BME280;6243;51.244;6.774;2023-04-02T06:09:20;150996.19;;;14.01;61.60
12358;BME280;6243;51.244;6.774;2023-04-02T06:11:51;150961.78;;;13.88;62.02
12358;BME280;6243;51.244;6.774;2023-04-02T06:14:20;150965.63;;;13.89;61.43
12358;BME280;6243;51.244;6.774;2023-04-02T06:16:45;151010.22;;;14.07;61.37
12358;BME280;6243;51.244;6.774;2023-04-02T06:19:15;150926.09;;;13.74;61.87
12358;BME280;6243;51.244;6.774;2023-04-02T06:21:45;151074.03;;;14.32;60.65
12358;BME280;6243;51.244;6.774;2023-04-02T06:24:14;150954.16;;;13.85;61.57
12358;BME280;6243;51.244;6.774;2023-04-02T06:26:43;150982.19;;;13.96;61.11
12358;BME280;6243;51.244;6.774;2023-04-02T06:29:12;150997.47;;;14.02;60.90
12358;BME280;6243;51.244;6.774;2023-04-02T06:31:42;151016.59;;;14.09;60.67
12358;BME280;6243;51.244;6.774;2023-04-02T06:34:14;150853.47;;;13.45;62.08
12358;BME280;6243;51.244;6.774;2023-04-02T06:36:40;151053.53;;;14.24;60.31
12358;BME280;6243;51.244;6.774;2023-04-02T06:39:10;150910.81;;;13.68;61.08
12358;BME280;6243;51.244;6.774;2023-04-02T06:41:41;150996.19;;;14.01;60.11
12358;BME280;6243;51.244;6.774;2023-04-02T06:44:11;151181.09;;;14.74;59.28
12358;BME280;6243;51.244;6.774;2023-04-02T06:46:42;151038.25;;;14.18;60.28
12358;BME280;6243;51.244;6.774;2023-04-02T06:49:16;151099.50;;;14.42;59.76
12358;BME280;6243;51.244;6.774;2023-04-02T06:51:44;150918.47;;;13.71;60.82
12358;BME280;6243;51.244;6.774;2023-04-02T06:54:14;150992.38;;;14.00;60.17
12358;BME280;6243;51.244;6.774;2023-04-02T06:56:43;151028.09;;;14.14;59.49
12358;BME280;6243;51.244;6.774;2023-04-02T06:59:10;150970.72;;;13.91;60.13
12358;BME280;6243;51.244;6.774;2023-04-02T07:01:38;151033.19;;;14.16;59.86
12358;BME280;6243;51.244;6.774;2023-04-02T07:04:06;151047.16;;;14.21;59.46
12358;BME280;6243;51.244;6.774;2023-04-02T07:06:32;151044.66;;;14.20;59.63
12358;BME280;6243;51.244;6.774;2023-04-02T07:08:57;150963.06;;;13.88;59.13
12358;BME280;6243;51.244;6.774;2023-04-02T07:11:24;151054.84;;;14.24;59.35
12358;BME280;6243;51.244;6.774;2023-04-02T07:13:49;151005.13;;;14.05;59.13
12358;BME280;6243;51.244;6.774;2023-04-02T07:16:17;150880.22;;;13.56;59.70
12358;BME280;6243;51.244;6.774;2023-04-02T07:18:43;150971.97;;;13.92;59.50
12358;BME280;6243;51.244;6.774;2023-04-02T07:21:09;150915.91;;;13.70;59.55
12358;BME280;6243;51.244;6.774;2023-04-02T07:23:34;150923.56;;;13.73;59.47
12358;BME280;6243;51.244;6.774;2023-04-02T07:26:00;151077.81;;;14.34;58.50
12358;BME280;6243;51.244;6.774;2023-04-02T07:28:27;150932.47;;;13.76;59.77
12358;BME280;6243;51.244;6.774;2023-04-02T07:30:53;151137.78;;;14.57;58.19
12358;BME280;6243;51.244;6.774;2023-04-02T07:33:21;150980.91;;;13.95;58.90
12358;BME280;6243;51.244;6.774;2023-04-02T07:35:47;150984.72;;;13.97;58.86
12358;BME280;6243;51.244;6.774;2023-04-02T07:38:13;150926.09;;;13.74;59.71
12358;BME280;6243;51.244;6.774;2023-04-02T07:40:38;151007.66;;;14.06;58.55
12358;BME280;6243;51.244;6.774;2023-04-02T07:43:05;151056.13;;;14.25;58.23
12358;BME280;6243;51.244;6.774;2023-04-02T07:45:32;150966.88;;;13.90;58.77
12358;BME280;6243;51.244;6.774;2023-04-02T07:48:03;151108.44;;;14.46;57.79
12358;BME280;6243;51.244;6.774;2023-04-02T07:50:29;151062.50;;;14.28;57.99
12358;BME280;6243;51.244;6.774;2023-04-02T07:52:54;151038.25;;;14.18;57.82
12358;BME280;6243;51.244;6.774;2023-04-02T07:55:20;151005.13;;;14.05;58.45
12358;BME280;6243;51.244;6.774;2023-04-02T07:57:50;151012.75;;;14.08;58.64
12358;BME280;6243;51.244;6.774;2023-04-02T08:00:17;150952.88;;;13.84;58.88
12358;BME280;6243;51.244;6.774;2023-04-02T08:02:44;151186.19;;;14.76;57.15
12358;BME280;6243;51.244;6.774;2023-04-02T08:05:10;151168.34;;;14.69;56.68
12358;BME280;6243;51.244;6.774;2023-04-02T08:07:35;151270.41;;;15.10;56.49
12358;BME280;6243;51.244;6.774;2023-04-02T08:10:01;150942.69;;;13.80;58.34
12358;BME280;6243;51.244;6.774;2023-04-02T08:12:27;150881.50;;;13.56;59.19
12358;BME280;6243;51.244;6.774;2023-04-02T08:14:52;151114.81;;;14.48;57.54
12358;BME280;6243;51.244;6.774;2023-04-02T08:17:18;151065.03;;;14.29;57.40
12358;BME280;6243;51.244;6.774;2023-04-02T08:19:45;151088.00;;;14.38;57.46
12358;BME280;6243;51.244;6.774;2023-04-02T08:22:10;151042.06;;;14.19;57.52
12358;BME280;6243;51.244;6.774;2023-04-02T08:24:36;151235.97;;;14.96;55.95
12358;BME280;6243;51.244;6.774;2023-04-02T08:27:01;151133.91;;;14.56;56.56
12358;BME280;6243;51.244;6.774;2023-04-02T08:29:27;151164.53;;;14.68;56.32
12358;BME280;6243;51.244;6.774;2023-04-02T08:31:53;151162.00;;;14.67;56.55
12358;BME280;6243;51.244;6.774;2023-04-02T08:34:18;151112.25;;;14.47;56.68
12358;BME280;6243;51.244;6.774;2023-04-02T08:36:45;150963.06;;;13.88;57.74
12358;BME280;6243;51.244;6.774;2023-04-02T08:39:11;151006.44;;;14.05;57.16
12358;BME280;6243;51.244;6.774;2023-04-02T08:41:38;151104.63;;;14.44;56.88
12358;BME280;6243;51.244;6.774;2023-04-02T08:44:28;151213.00;;;14.87;55.74
12358;BME280;6243;51.244;6.774;2023-04-02T08:47:03;151213.00;;;14.87;55.67
12358;BME280;6243;51.244;6.774;2023-04-02T08:49:34;151116.09;;;14.49;56.07
12358;BME280;6243;51.244;6.774;2023-04-02T08:52:03;151091.88;;;14.39;56.20
12358;BME280;6243;51.244;6.774;2023-04-02T08:54:31;151191.34;;;14.78;55.91
12358;BME280;6243;51.244;6.774;2023-04-02T08:57:01;151131.38;;;14.55;56.37
12358;BME280;6243;51.244;6.774;2023-04-02T08:59:32;151062.50;;;14.28;56.64
12358;BME280;6243;51.244;6.774;2023-04-02T09:02:05;151001.28;;;14.03;56.82
12358;BME280;6243;51.244;6.774;2023-04-02T09:04:38;151132.69;;;14.55;55.99
12358;BME280;6243;51.244;6.774;2023-04-02T09:07:10;151047.16;;;14.21;56.34
12358;BME280;6243;51.244;6.774;2023-04-02T09:09:37;151028.09;;;14.14;56.70
12358;BME280;6243;51.244;6.774;2023-04-02T09:12:03;151028.09;;;14.14;57.04
12358;BME280;6243;51.244;6.774;2023-04-02T09:14:38;151165.81;;;14.68;55.94
12358;BME280;6243;51.244;6.774;2023-04-02T09:17:16;151216.81;;;14.88;55.00
12358;BME280;6243;51.244;6.774;2023-04-02T09:19:43;151095.69;;;14.41;55.78
12358;BME280;6243;51.244;6.774;2023-04-02T09:22:18;151135.19;;;14.56;55.38
12358;BME280;6243;51.244;6.774;2023-04-02T09:24:50;151056.13;;;14.25;56.50
12358;BME280;6243;51.244;6.774;2023-04-02T09:27:17;151196.44;;;14.80;55.66
12358;BME280;6243;51.244;6.774;2023-04-02T09:29:45;151038.25;;;14.18;56.07
12358;BME280;6243;51.244;6.774;2023-04-02T09:32:24;151177.28;;;14.73;55.57
12358;BME280;6243;51.244;6.774;2023-04-02T09:35:04;151399.34;;;15.60;54.19
12358;BME280;6243;51.244;6.774;2023-04-02T09:37:31;151313.75;;;15.27;54.96
12358;BME280;6243;51.244;6.774;2023-04-02T09:40:12;151272.94;;;15.11;55.10
12358;BME280;6243;51.244;6.774;2023-04-02T09:42:40;151272.94;;;15.11;54.66
12358;BME280;6243;51.244;6.774;2023-04-02T09:45:14;151267.84;;;15.09;55.13
12358;BME280;6243;51.244;6.774;2023-04-02T09:47:43;151253.84;;;15.03;54.84
12358;BME280;6243;51.244;6.774;2023-04-02T09:50:14;151269.13;;;15.09;54.49
12358;BME280;6243;51.244;6.774;2023-04-02T09:52:48;151158.16;;;14.65;54.66
12358;BME280;6243;51.244;6.774;2023-04-02T09:55:20;151307.38;;;15.24;54.75
12358;BME280;6243;51.244;6.774;2023-04-02T09:57:47;151047.16;;;14.21;56.06
12358;BME280;6243;51.244;6.774;2023-04-02T10:00:18;151249.97;;;15.02;54.24
12358;BME280;6243;51.244;6.774;2023-04-02T10:02:45;151341.81;;;15.38;53.79
12358;BME280;6243;51.244;6.774;2023-04-02T10:05:17;151303.56;;;15.23;54.01
12358;BME280;6243;51.244;6.774;2023-04-02T10:07:44;151438.91;;;15.76;53.09
12358;BME280;6243;51.244;6.774;2023-04-02T10:10:19;151340.59;;;15.37;53.91
12358;BME280;6243;51.244;6.774;2023-04-02T10:12:49;151479.75;;;15.92;53.08
12358;BME280;6243;51.244;6.774;2023-04-02T10:15:20;151520.59;;;16.08;52.86
12358;BME280;6243;51.244;6.774;2023-04-02T10:17:58;151408.25;;;15.64;52.97
12358;BME280;6243;51.244;6.774;2023-04-02T10:20:26;151324.00;;;15.31;53.29
12358;BME280;6243;51.244;6.774;2023-04-02T10:22:54;151428.66;;;15.72;53.01
12358;BME280;6243;51.244;6.774;2023-04-02T10:25:23;151441.44;;;15.77;52.75
12358;BME280;6243;51.244;6.774;2023-04-02T10:27:56;151520.59;;;16.08;52.73
12358;BME280;6243;51.244;6.774;2023-04-02T10:30:49;151520.59;;;16.08;52.15
12358;BME280;6243;51.244;6.774;2023-04-02T10:33:23;151556.31;;;16.22;52.09
12358;BME280;6243;51.244;6.774;2023-04-02T10:35:54;151535.91;;;16.14;52.12
12358;BME280;6243;51.244;6.774;2023-04-02T10:38:28;151589.53;;;16.36;51.42
12358;BME280;6243;51.244;6.774;2023-04-02T10:40:58;151405.69;;;15.63;52.18
12358;BME280;6243;51.244;6.774;2023-04-02T10:43:36;151604.84;;;16.42;51.13
12358;BME280;6243;51.244;6.774;2023-04-02T10:46:05;151487.38;;;15.95;51.90
12358;BME280;6243;51.244;6.774;2023-04-02T10:48:39;151533.31;;;16.13;51.46
12358;BME280;6243;51.244;6.774;2023-04-02T10:51:19;151595.94;;;16.38;50.91
12358;BME280;6243;51.244;6.774;2023-04-02T10:53:52;151618.91;;;16.47;50.67
12358;BME280;6243;51.244;6.774;2023-04-02T10:56:24;151367.41;;;15.48;51.81
12358;BME280;6243;51.244;6.774;2023-04-02T10:58:54;151364.88;;;15.47;51.61
12358;BME280;6243;51.244;6.774;2023-04-02T11:01:24;151590.78;;;16.36;51.22
12358;BME280;6243;51.244;6.774;2023-04-02T11:03:54;151666.19;;;16.66;50.39
12358;BME280;6243;51.244;6.774;2023-04-02T11:06:25;151816.94;;;17.25;49.92
12358;BME280;6243;51.244;6.774;2023-04-02T11:08:55;151673.88;;;16.69;50.14
12358;BME280;6243;51.244;6.774;2023-04-02T11:11:24;151599.75;;;16.40;50.56
12358;BME280;6243;51.244;6.774;2023-04-02T11:13:54;151367.41;;;15.48;51.96
12358;BME280;6243;51.244;6.774;2023-04-02T11:16:22;151549.91;;;16.20;50.79
12358;BME280;6243;51.244;6.774;2023-04-02T11:19:07;151553.78;;;16.21;50.78
12358;BME280;6243;51.244;6.774;2023-04-02T11:21:37;151556.31;;;16.22;50.62
12358;BME280;6243;51.244;6.774;2023-04-02T11:24:04;151649.59;;;16.59;50.17
12358;BME280;6243;51.244;6.774;2023-04-02T11:26:33;151716.03;;;16.85;49.83
12358;BME280;6243;51.244;6.774;2023-04-02T11:29:05;151512.94;;;16.05;49.95
12358;BME280;6243;51.244;6.774;2023-04-02T11:31:33;151492.47;;;15.97;50.80
12358;BME280;6243;51.244;6.774;2023-04-02T11:33:59;151808.00;;;17.22;49.79
12358;BME280;6243;51.244;6.774;2023-04-02T11:36:59;151489.94;;;15.96;50.31
12358;BME280;6243;51.244;6.774;2023-04-02T11:39:51;151460.59;;;15.85;51.12
12358;BME280;6243;51.244;6.774;2023-04-02T11:42:29;151627.88;;;16.51;50.59
12358;BME280;6243;51.244;6.774;2023-04-02T11:44:58;151648.34;;;16.59;49.82
12358;BME280;6243;51.244;6.774;2023-04-02T11:47:25;151663.66;;;16.65;49.78
12358;BME280;6243;51.244;6.774;2023-04-02T11:50:01;151461.88;;;15.85;50.50
12358;BME280;6243;51.244;6.774;2023-04-02T11:52:30;151428.66;;;15.72;50.64
12358;BME280;6243;51.244;6.774;2023-04-02T11:55:00;151519.31;;;16.08;50.32
12358;BME280;6243;51.244;6.774;2023-04-02T11:57:50;151558.88;;;16.23;50.14
12358;BME280;6243;51.244;6.774;2023-04-02T12:00:41;151497.63;;;15.99;50.06
12358;BME280;6243;51.244;6.774;2023-04-02T12:03:31;151498.88;;;16.00;50.33
12358;BME280;6243;51.244;6.774;2023-04-02T12:08:08;151815.69;;;17.25;49.00
12358;BME280;6243;51.244;6.774;2023-04-02T12:10:57;151643.19;;;16.57;49.66
12358;BME280;6243;51.244;6.774;2023-04-02T12:13:49;151645.78;;;16.58;49.46
12358;BME280;6243;51.244;6.774;2023-04-02T12:16:15;151617.63;;;16.47;49.95
12358;BME280;6243;51.244;6.774;2023-04-02T12:18:42;151787.53;;;17.14;49.43
12358;BME280;6243;51.244;6.774;2023-04-02T12:21:14;151698.13;;;16.78;49.12
12358;BME280;6243;51.244;6.774;2023-04-02T12:23:44;151627.88;;;16.51;49.08
12358;BME280;6243;51.244;6.774;2023-04-02T12:26:25;151717.31;;;16.86;48.82
12358;BME280;6243;51.244;6.774;2023-04-02T12:28:51;151847.63;;;17.37;48.54
12358;BME280;6243;51.244;6.774;2023-04-02T12:31:23;151675.16;;;16.69;48.87
12358;BME280;6243;51.244;6.774;2023-04-02T12:33:51;151797.78;;;17.18;49.43
12358;BME280;6243;51.244;6.774;2023-04-02T12:36:18;151896.25;;;17.56;48.43
12358;BME280;6243;51.244;6.774;2023-04-02T12:38:48;151949.91;;;17.78;48.00
12358;BME280;6243;51.244;6.774;2023-04-02T12:41:22;151956.28;;;17.80;47.19
12358;BME280;6243;51.244;6.774;2023-04-02T12:43:55;151847.63;;;17.37;47.55
12358;BME280;6243;51.244;6.774;2023-04-02T12:46:21;151707.06;;;16.82;48.37
12358;BME280;6243;51.244;6.774;2023-04-02T12:48:47;151772.22;;;17.08;48.06
12358;BME280;6243;51.244;6.774;2023-04-02T12:51:12;151586.97;;;16.34;48.66
12358;BME280;6243;51.244;6.774;2023-04-02T12:53:40;151497.63;;;15.99;49.18
12358;BME280;6243;51.244;6.774;2023-04-02T12:56:18;151694.31;;;16.77;48.23
12358;BME280;6243;51.244;6.774;2023-04-02T12:58:52;151638.09;;;16.55;48.16
12358;BME280;6243;51.244;6.774;2023-04-02T13:01:19;151687.94;;;16.74;48.02
12358;BME280;6243;51.244;6.774;2023-04-02T13:03:59;151678.97;;;16.71;47.74
12358;BME280;6243;51.244;6.774;2023-04-02T13:06:24;151602.28;;;16.41;48.45
12358;BME280;6243;51.244;6.774;2023-04-02T13:08:50;151698.13;;;16.78;48.40
12358;BME280;6243;51.244;6.774;2023-04-02T13:11:17;151638.09;;;16.55;48.60
12358;BME280;6243;51.244;6.774;2023-04-02T13:13:44;151583.16;;;16.33;48.25
12358;BME280;6243;51.244;6.774;2023-04-02T13:16:26;151569.09;;;16.27;48.50
12358;BME280;6243;51.244;6.774;2023-04-02T13:19:08;151645.78;;;16.58;48.75
12358;BME280;6243;51.244;6.774;2023-04-02T13:21:35;151486.13;;;15.95;48.91